• Join FlightAware (Why Join?)
  • Login
  • US Flag 
07:26PM EDT


 

Airport Tracker/Info


-or-


 

Live Flight TrackerFlight Track Log ✈ RPA3346 ✈ 15-Jun-2014 ✈ KCLT - KBWI

Flight Track Log - Related Links

Times and Time Zones

All times are in EDT time to prevent confusion due to time zone crossing. See the RPA3346 flight status page for this flight to view local times or setup timezone preferences in your user account.

Time Position Orientation Groundspeed Altitude Reporting Facility
EDT Latitude Longitude Course Direction KTS MPH feet Rate Location/Type
06:30PM 35.1950 -80.9356 30° Northeast 151 174 1,400  Level Atlanta Center
06:31PM 35.1658 -80.9342 178° South 157 181 2,400 1,980 Climbing Atlanta Center
06:32PM 35.1189 -80.8978 148° Southeast 234 269 4,500 2,400 Climbing Atlanta Center
06:33PM 35.0936 -80.8047 108° East 287 330 7,400 1,800 Climbing Atlanta Center
06:34PM 35.1022 -80.7358 81° East 284 327 8,100 1,320 Climbing Atlanta Center
06:34PM 35.1036 -80.7106 86° East 291 335 8,800 2,580 Climbing Atlanta Center
06:35PM 35.2158 -80.5554 30° Northeast  Level FlightAware Approximate
06:35PM 35.1119 -80.6364 82° East 311 358 10,700  Level Atlanta Center
06:36PM 35.2933 -80.5000 30° Northeast  Level FlightAware Approximate
06:36PM 35.1681 -80.5581 49° Northeast 305 351 12,400  Level Atlanta Center
06:37PM 35.2617 -80.5439 North 274 315 14,000 1,080 Climbing Atlanta Center
06:38PM 35.3344 -80.4644 42° Northeast 332 382 14,600 1,440 Climbing Atlanta Center
06:39PM 35.3728 -80.3456 68° East 338 389 16,900 1,980 Climbing Atlanta Center
06:41PM 35.4331 -80.1450 70° East 372 428 19,700 1,680 Climbing Washington Center
06:42PM 35.4603 -80.0292 74° East 379 436 21,200 1,500 Climbing Washington Center
06:43PM 35.4944 -79.8958 72° East 389 448 22,700 1,380 Climbing Washington Center
06:44PM 35.5283 -79.7597 73° East 402 463 24,000 1,380 Climbing Washington Center
06:44PM 35.5644 -79.6186 72° East 415 478 25,500 1,440 Climbing Washington Center
06:46PM 35.6072 -79.4650 71° East 431 496 26,900 900 Climbing Washington Center
06:47PM 35.6508 -79.3394 67° East 436 502 27,400 480 Climbing Washington Center
06:48PM 35.7097 -79.1939 63° Northeast 452 520 27,900 660 Climbing Washington Center
06:48PM 35.8006 -79.0775 46° Northeast 462 532 28,700 540 Climbing Washington Center
06:50PM 35.9036 -78.9769 38° Northeast 462 532 29,000 120 Climbing Washington Center
06:51PM 36.0089 -78.8736 38° Northeast 467 537 29,000  Level Washington Center
06:51PM 36.1097 -78.7697 40° Northeast 467 537 29,000  Level Washington Center
06:53PM 36.2125 -78.6658 39° Northeast 472 543 29,000  Level Washington Center
06:54PM 36.3175 -78.5592 39° Northeast 477 549 29,000  Level Washington Center
06:55PM 36.4222 -78.4547 39° Northeast 477 549 29,000  Level Washington Center
06:56PM 36.5250 -78.3472 40° Northeast 477 549 29,000  Level Washington Center
06:57PM 36.6294 -78.2422 39° Northeast 477 549 29,000 -300 Level Washington Center
06:58PM 36.7281 -78.1317 42° Northeast 482 555 28,400 -660 Descending Washington Center
06:59PM 36.8325 -78.0261 39° Northeast 482 555 27,700 -720 Descending Washington Center
07:00PM 36.9325 -77.9278 38° Northeast 470 541 27,000 -900 Descending Washington Center
07:01PM 37.0464 -77.8636 24° Northeast 457 526 26,000 -540 Descending Washington Center
07:02PM 37.1600 -77.8019 23° Northeast 444 511 26,000  Level Washington Center
07:02PM 37.2758 -77.7425 22° Northeast 444 511 26,000  Level Washington Center
07:03PM 37.3875 -77.6828 23° Northeast 439 505 26,000  Level Washington Center
07:04PM 37.5011 -77.6206 23° Northeast 439 505 26,000 -600 Level Washington Center
07:06PM 37.6106 -77.5606 23° Northeast 439 505 24,800 -1,500 Descending Washington Center
07:06PM 37.7158 -77.5031 23° Northeast 432 497 23,100 -960 Descending Washington Center
07:07PM 37.8189 -77.4450 24° Northeast 411 473 23,000 -60 Descending Washington Center
07:09PM 37.9261 -77.3897 22° Northeast 411 473 23,000 -300 Level Washington Center
07:10PM 38.0292 -77.3289 25° Northeast 406 467 22,500 -1,440 Descending Washington Center
07:10PM 38.1406 -77.2736 21° North 397 457 20,200 -2,280 Descending Washington Center
07:11PM 38.2414 -77.2175 24° Northeast 397 457 18,100 -2,040 Descending Washington Center
07:13PM 38.3339 -77.1614 25° Northeast 384 442 16,100 -1,980 Descending Washington Center
07:14PM 38.4061 -77.0647 46° Northeast 369 425 14,100 -1,980 Descending Washington Center
07:15PM 38.4781 -76.9708 46° Northeast 364 419 12,100 -1,620 Descending Washington Center
07:15PM 38.5439 -76.8764 48° Northeast 358 412 11,000 -720 Descending Washington Center
07:17PM 38.6092 -76.7872 47° Northeast 348 400 10,700 -840 Descending Washington Center
07:18PM 38.6664 -76.7111 46° Northeast 321 369 9,400 -1,560 Descending Washington Center
07:19PM 38.7667 -76.5667 48° Northeast 275 316 6,100 -1,200 Descending Potomac TRACON
07:20PM 38.8167 -76.5000 46° Northeast 272 313 5,900 -840 Descending Potomac TRACON
07:21PM 38.8833 -76.4167 44° Northeast 270 311 4,500 -900 Descending Potomac TRACON
07:22PM 38.9333 -76.3500 46° Northeast 266 306 4,100 -240 Descending Potomac TRACON
07:24PM 39.0167 -76.3667 351° North 266 306 4,100 -480 Level Potomac TRACON
07:25PM 39.0667 -76.4167 322° Northwest 256 295 3,100 -900 Descending Potomac TRACON
07:26PM 39.0667 -76.5000 270° West 212 244 2,400 -300 Descending Potomac TRACON
07:27PM 39.0667 -76.5667 270° West 174 200 2,500 -360 Climbing Potomac TRACON
07:28PM 39.1000 -76.6000 322° Northwest 160 184 1,700 -840 Descending Potomac TRACON
07:29PM 39.1333 -76.6333 322° Northwest 136 157 1,000 -780 Descending Potomac TRACON
07:30PM 39.1667 -76.6667 339° North  Level FlightAware Approximate
07:37PM 39.1754 -76.6683 339° North  Level Estimated
07:38PM 39.1754 -76.6683 339° North  Level Estimated
07:39PM 39.1754 -76.6683 339° North  Level Estimated